Maupin, OR

6:20 AM PDT on October 22, 2014 (GMT -0700)
RAWS HEHE 1 OR US | Change Station
CLOSE
Current Station
Personal Weather Station
Location: Maupin, OR
Elevation: 2679 ft
Nearby Weather Stations

Elev 2679 ft 44.96 °N, 121.50 °W | Updated 56 minutes ago

Overcast
Overcast
44 °F
Feels Like 42 °F
N
4
Wind Variable Wind from WSW
Gusts 7.0 mph

Today
High -- | Low -- °F
--% Chance of Precip.
Yesterday
High -- | Low -- °F
Precip. -- in
7:30 AM 6:08 PM
Waning Crescent, 2% visible
Pressure 29.90 in
Visibility 10.0 miles
Clouds Few 6500 ft
Few 8000 ft
Scattered Clouds 10000 ft
Windchill 42 °F
Dew Point 40 °F
Humidity 85%
Rainfall 0.00 in
Snow Depth 0 in , 1 in
UV 0 out of 12
Pollen .40 out of 12
Air Quality Not available.
Flu Activity Sporadic
METAR KRDM 221256Z 15010KT 10SM FEW065 FEW080 SCT100 10/03 A2992 RMK AO2 SLP125 T01000028

More Conditions Fewer Conditions

Pressure 29.90 in
Visibility 10.0 miles
Clouds Few 6500 ft
Few 8000 ft
Scattered Clouds 10000 ft
Windchill 42 °F
Dew Point 40 °F
Humidity 85%
Rainfall 0.00 in
Snow Depth 0 in , 1 in
UV 0 out of 12
Pollen .40 out of 12
Air Quality Not available.
Flu Activity Sporadic
METAR KRDM 221256Z 15010KT 10SM FEW065 FEW080 SCT100 10/03 A2992 RMK AO2 SLP125 T01000028

More Conditions Fewer Conditions

10-Day Weather Forecast

Almanac

Astronomy

Oct. 22, 2014 Rise Set
Actual Time 7:30 AM PDT 6:08 PM PDT
Civil Twilight 7:00 AM PDT 6:38 PM PDT
Nautical Twilight 6:26 AM PDT 7:12 PM PDT
Astronomical Twilight 5:52 AM PDT 7:46 PM PDT
Moon 6:14 AM PDT 5:40 PM PDT
Length of Visible Light 11h 37m
Length of Day
10h 37m
Tomorrow will be 2m 57s shorter.
Waning Crescent, 2% of the Moon is Illuminated
Today
Waning Crescent
Oct 23
New
Oct 30
First Quarter
Nov 6
Full
Nov 14
Last Quarter

Today's Extremes

State Highs State Lows

Community

WunderPhotos

Upload Photos

1,763,917 photos uploaded!

Nearby

Snow Depth

Station Depth Elevation
Clackamas Lake 0 in 3400 ft
Clear Lake 1 in 3500 ft
Mud Ridge 0 in 3800 ft
Peavine Ridge 0 in 3500 ft
Red Hill 0 in 4400 ft

Earthquake Activity

City Distance Mag. Time & Date
No recent earthquake activity has been reported nearby.
Minimum magnitude displayed is 2.5.

Coastal Water Temperatures

Place Temperature
No Stations Reporting

Nearby Weather Stations